sensor_id;sensor_type;location;lat;lon;timestamp;pressure;altitude;pressure_sealevel;temperature;humidity
19112;BME280;9688;51.906;8.376;2023-10-31T00:00:15;98607.97;;;14.14;100.00
19112;BME280;9688;51.906;8.376;2023-10-31T00:03:01;98602.66;;;14.14;100.00
19112;BME280;9688;51.906;8.376;2023-10-31T00:05:47;98598.16;;;14.14;100.00
19112;BME280;9688;51.906;8.376;2023-10-31T00:08:34;98604.31;;;14.15;100.00
19112;BME280;9688;51.906;8.376;2023-10-31T00:11:19;98598.16;;;14.14;100.00
19112;BME280;9688;51.906;8.376;2023-10-31T00:14:05;98595.50;;;14.14;100.00
19112;BME280;9688;51.906;8.376;2023-10-31T00:16:53;98593.56;;;14.16;100.00
19112;BME280;9688;51.906;8.376;2023-10-31T00:19:39;98592.59;;;14.17;100.00
19112;BME280;9688;51.906;8.376;2023-10-31T00:22:24;98595.81;;;14.21;100.00
19112;BME280;9688;51.906;8.376;2023-10-31T00:25:11;98582.41;;;14.22;100.00
19112;BME280;9688;51.906;8.376;2023-10-31T00:27:57;98579.75;;;14.22;100.00
19112;BME280;9688;51.906;8.376;2023-10-31T00:30:43;98580.59;;;14.23;100.00
19112;BME280;9688;51.906;8.376;2023-10-31T00:33:29;98582.41;;;14.22;100.00
19112;BME280;9688;51.906;8.376;2023-10-31T00:36:16;98583.50;;;14.20;100.00
19112;BME280;9688;51.906;8.376;2023-10-31T00:39:03;98581.97;;;14.17;100.00
19112;BME280;9688;51.906;8.376;2023-10-31T00:41:50;98580.41;;;14.15;100.00
19112;BME280;9688;51.906;8.376;2023-10-31T00:44:36;98584.88;;;14.14;100.00
19112;BME280;9688;51.906;8.376;2023-10-31T00:47:22;98577.88;;;14.13;100.00
19112;BME280;9688;51.906;8.376;2023-10-31T00:50:08;98581.50;;;14.12;100.00
19112;BME280;9688;51.906;8.376;2023-10-31T00:52:54;98579.84;;;14.11;100.00
19112;BME280;9688;51.906;8.376;2023-10-31T00:55:40;98573.91;;;14.07;100.00
19112;BME280;9688;51.906;8.376;2023-10-31T00:58:27;98576.72;;;14.06;100.00
19112;BME280;9688;51.906;8.376;2023-10-31T01:01:14;98562.59;;;14.05;100.00
19112;BME280;9688;51.906;8.376;2023-10-31T01:04:00;98571.16;;;14.09;100.00
19112;BME280;9688;51.906;8.376;2023-10-31T01:06:46;98570.44;;;14.07;100.00
19112;BME280;9688;51.906;8.376;2023-10-31T01:09:32;98573.91;;;14.07;100.00
19112;BME280;9688;51.906;8.376;2023-10-31T01:12:18;98573.81;;;14.09;100.00
19112;BME280;9688;51.906;8.376;2023-10-31T01:15:05;98573.09;;;14.07;100.00
19112;BME280;9688;51.906;8.376;2023-10-31T01:17:51;98571.16;;;14.09;100.00
19112;BME280;9688;51.906;8.376;2023-10-31T01:20:37;98575.47;;;14.10;100.00
19112;BME280;9688;51.906;8.376;2023-10-31T01:23:23;98577.28;;;14.10;100.00
19112;BME280;9688;51.906;8.376;2023-10-31T01:26:09;98567.78;;;14.07;100.00
19112;BME280;9688;51.906;8.376;2023-10-31T01:28:55;98575.06;;;14.05;100.00
19112;BME280;9688;51.906;8.376;2023-10-31T01:31:42;98576.16;;;14.02;100.00
19112;BME280;9688;51.906;8.376;2023-10-31T01:34:28;98586.78;;;14.02;100.00
19112;BME280;9688;51.906;8.376;2023-10-31T01:37:13;98578.81;;;14.02;100.00
19112;BME280;9688;51.906;8.376;2023-10-31T01:39:59;98586.91;;;14.01;100.00
19112;BME280;9688;51.906;8.376;2023-10-31T01:42:45;98594.88;;;14.01;100.00
19112;BME280;9688;51.906;8.376;2023-10-31T01:45:31;98590.53;;;14.00;100.00
19112;BME280;9688;51.906;8.376;2023-10-31T01:48:18;98611.34;;;13.95;100.00
19112;BME280;9688;51.906;8.376;2023-10-31T01:51:05;98592.41;;;13.88;100.00
19112;BME280;9688;51.906;8.376;2023-10-31T01:53:52;98619.75;;;13.79;100.00
19112;BME280;9688;51.906;8.376;2023-10-31T01:56:42;98618.97;;;13.67;100.00
19112;BME280;9688;51.906;8.376;2023-10-31T01:59:29;98627.72;;;13.58;100.00
19112;BME280;9688;51.906;8.376;2023-10-31T02:02:15;98619.53;;;13.50;100.00
19112;BME280;9688;51.906;8.376;2023-10-31T02:05:02;98610.75;;;13.38;100.00
19112;BME280;9688;51.906;8.376;2023-10-31T02:07:48;98617.41;;;13.32;100.00
19112;BME280;9688;51.906;8.376;2023-10-31T02:10:34;98624.53;;;13.21;100.00
19112;BME280;9688;51.906;8.376;2023-10-31T02:13:20;98626.84;;;13.14;100.00
19112;BME280;9688;51.906;8.376;2023-10-31T02:16:06;98633.50;;;13.08;100.00
19112;BME280;9688;51.906;8.376;2023-10-31T02:18:52;98625.44;;;12.99;100.00
19112;BME280;9688;51.906;8.376;2023-10-31T02:21:40;98638.22;;;12.93;100.00
19112;BME280;9688;51.906;8.376;2023-10-31T02:24:26;98638.47;;;12.90;100.00
19112;BME280;9688;51.906;8.376;2023-10-31T02:27:12;98649.56;;;12.84;100.00
19112;BME280;9688;51.906;8.376;2023-10-31T02:29:57;98646.19;;;12.82;100.00
19112;BME280;9688;51.906;8.376;2023-10-31T02:32:44;98651.72;;;12.79;100.00
19112;BME280;9688;51.906;8.376;2023-10-31T02:35:30;98637.88;;;12.76;100.00
19112;BME280;9688;51.906;8.376;2023-10-31T02:38:17;98638.25;;;12.71;100.00
19112;BME280;9688;51.906;8.376;2023-10-31T02:41:03;98645.47;;;12.69;100.00
19112;BME280;9688;51.906;8.376;2023-10-31T02:43:48;98642.13;;;12.67;100.00
19112;BME280;9688;51.906;8.376;2023-10-31T02:46:37;98653.06;;;12.62;100.00
19112;BME280;9688;51.906;8.376;2023-10-31T02:49:23;98656.69;;;12.61;100.00
19112;BME280;9688;51.906;8.376;2023-10-31T02:52:09;98648.00;;;12.59;100.00
19112;BME280;9688;51.906;8.376;2023-10-31T02:54:56;98657.78;;;12.59;100.00
19112;BME280;9688;51.906;8.376;2023-10-31T02:57:41;98665.84;;;12.57;100.00
19112;BME280;9688;51.906;8.376;2023-10-31T03:00:27;98679.47;;;12.53;100.00
19112;BME280;9688;51.906;8.376;2023-10-31T03:03:13;98676.91;;;12.51;100.00
19112;BME280;9688;51.906;8.376;2023-10-31T03:05:59;98675.34;;;12.48;100.00
19112;BME280;9688;51.906;8.376;2023-10-31T03:08:46;98690.28;;;12.49;100.00
19112;BME280;9688;51.906;8.376;2023-10-31T03:11:33;98674.84;;;12.43;100.00
19112;BME280;9688;51.906;8.376;2023-10-31T03:14:19;98684.97;;;12.38;100.00
19112;BME280;9688;51.906;8.376;2023-10-31T03:17:05;98688.81;;;12.34;100.00
19112;BME280;9688;51.906;8.376;2023-10-31T03:19:51;98694.13;;;12.34;100.00
19112;BME280;9688;51.906;8.376;2023-10-31T03:22:37;98710.97;;;12.33;100.00
19112;BME280;9688;51.906;8.376;2023-10-31T03:25:23;98707.38;;;12.34;100.00
19112;BME280;9688;51.906;8.376;2023-10-31T03:28:19;98708.31;;;12.33;100.00
19112;BME280;9688;51.906;8.376;2023-10-31T03:31:07;98715.56;;;12.31;100.00
19112;BME280;9688;51.906;8.376;2023-10-31T03:33:54;98714.00;;;12.28;100.00
19112;BME280;9688;51.906;8.376;2023-10-31T03:36:40;98715.91;;;12.26;100.00
19112;BME280;9688;51.906;8.376;2023-10-31T03:39:25;98726.00;;;12.21;100.00
19112;BME280;9688;51.906;8.376;2023-10-31T03:42:11;98733.94;;;12.21;100.00
19112;BME280;9688;51.906;8.376;2023-10-31T03:44:58;98726.22;;;12.18;100.00
19112;BME280;9688;51.906;8.376;2023-10-31T03:47:44;98731.88;;;12.14;100.00
19112;BME280;9688;51.906;8.376;2023-10-31T03:50:30;98746.91;;;12.13;100.00
19112;BME280;9688;51.906;8.376;2023-10-31T03:53:16;98745.25;;;12.12;100.00
19112;BME280;9688;51.906;8.376;2023-10-31T03:56:02;98739.44;;;12.07;100.00
19112;BME280;9688;51.906;8.376;2023-10-31T03:58:48;98752.19;;;12.02;100.00
19112;BME280;9688;51.906;8.376;2023-10-31T04:01:34;98758.53;;;11.99;100.00
19112;BME280;9688;51.906;8.376;2023-10-31T04:04:20;98769.38;;;11.96;100.00
19112;BME280;9688;51.906;8.376;2023-10-31T04:07:06;98764.44;;;11.92;100.00
19112;BME280;9688;51.906;8.376;2023-10-31T04:09:52;98779.69;;;11.88;100.00
19112;BME280;9688;51.906;8.376;2023-10-31T04:12:39;98778.09;;;11.86;100.00
19112;BME280;9688;51.906;8.376;2023-10-31T04:15:25;98778.44;;;11.81;100.00
19112;BME280;9688;51.906;8.376;2023-10-31T04:18:12;98784.66;;;11.80;100.00
19112;BME280;9688;51.906;8.376;2023-10-31T04:20:59;98791.03;;;11.77;100.00
19112;BME280;9688;51.906;8.376;2023-10-31T04:23:45;98798.03;;;11.78;100.00
19112;BME280;9688;51.906;8.376;2023-10-31T04:26:30;98793.66;;;11.77;100.00
19112;BME280;9688;51.906;8.376;2023-10-31T04:29:16;98801.50;;;11.79;100.00
19112;BME280;9688;51.906;8.376;2023-10-31T04:32:03;98797.19;;;11.78;100.00
19112;BME280;9688;51.906;8.376;2023-10-31T04:34:49;98805.97;;;11.78;100.00
19112;BME280;9688;51.906;8.376;2023-10-31T04:37:35;98809.22;;;11.82;100.00
19112;BME280;9688;51.906;8.376;2023-10-31T04:40:21;98809.88;;;11.86;100.00
19112;BME280;9688;51.906;8.376;2023-10-31T04:43:07;98812.41;;;11.87;100.00
19112;BME280;9688;51.906;8.376;2023-10-31T04:45:52;98812.28;;;11.89;100.00
19112;BME280;9688;51.906;8.376;2023-10-31T04:48:39;98823.63;;;11.91;100.00
19112;BME280;9688;51.906;8.376;2023-10-31T04:51:26;98823.41;;;11.94;100.00
19112;BME280;9688;51.906;8.376;2023-10-31T04:54:11;98825.94;;;11.95;100.00
19112;BME280;9688;51.906;8.376;2023-10-31T04:57:02;98836.41;;;11.97;100.00
19112;BME280;9688;51.906;8.376;2023-10-31T04:59:48;98837.28;;;11.97;100.00
19112;BME280;9688;51.906;8.376;2023-10-31T05:02:36;98848.72;;;11.98;100.00
19112;BME280;9688;51.906;8.376;2023-10-31T05:05:21;98844.16;;;12.00;100.00
19112;BME280;9688;51.906;8.376;2023-10-31T05:08:09;98847.41;;;12.03;100.00
19112;BME280;9688;51.906;8.376;2023-10-31T05:10:55;98851.75;;;12.04;100.00
19112;BME280;9688;51.906;8.376;2023-10-31T05:13:40;98861.41;;;12.05;100.00
19112;BME280;9688;51.906;8.376;2023-10-31T05:16:26;98860.31;;;12.08;100.00
19112;BME280;9688;51.906;8.376;2023-10-31T05:19:12;98857.66;;;12.08;100.00
19112;BME280;9688;51.906;8.376;2023-10-31T05:22:01;98860.31;;;12.08;100.00
19112;BME280;9688;51.906;8.376;2023-10-31T05:24:48;98860.31;;;12.08;100.00
19112;BME280;9688;51.906;8.376;2023-10-31T05:27:34;98854.31;;;12.06;100.00
19112;BME280;9688;51.906;8.376;2023-10-31T05:30:19;98863.81;;;12.09;100.00
19112;BME280;9688;51.906;8.376;2023-10-31T05:33:05;98866.13;;;12.13;100.00
19112;BME280;9688;51.906;8.376;2023-10-31T05:35:51;98870.47;;;12.14;100.00
19112;BME280;9688;51.906;8.376;2023-10-31T05:38:37;98867.59;;;12.17;100.00
19112;BME280;9688;51.906;8.376;2023-10-31T05:41:27;98878.06;;;12.19;100.00
19112;BME280;9688;51.906;8.376;2023-10-31T05:44:13;98870.03;;;12.20;100.00
19112;BME280;9688;51.906;8.376;2023-10-31T05:46:59;98877.13;;;12.20;100.00
19112;BME280;9688;51.906;8.376;2023-10-31T05:49:45;98876.38;;;12.18;100.00
19112;BME280;9688;51.906;8.376;2023-10-31T05:52:31;98873.84;;;12.16;100.00
19112;BME280;9688;51.906;8.376;2023-10-31T05:55:17;98883.50;;;12.17;100.00
19112;BME280;9688;51.906;8.376;2023-10-31T05:58:04;98879.03;;;12.18;100.00
19112;BME280;9688;51.906;8.376;2023-10-31T06:00:51;98890.38;;;12.20;100.00
19112;BME280;9688;51.906;8.376;2023-10-31T06:03:36;98893.03;;;12.20;100.00
19112;BME280;9688;51.906;8.376;2023-10-31T06:06:22;98893.88;;;12.20;100.00
19112;BME280;9688;51.906;8.376;2023-10-31T06:09:08;98894.69;;;12.21;100.00
19112;BME280;9688;51.906;8.376;2023-10-31T06:11:54;98893.75;;;12.22;100.00
19112;BME280;9688;51.906;8.376;2023-10-31T06:14:42;98903.16;;;12.26;100.00
19112;BME280;9688;51.906;8.376;2023-10-31T06:17:27;98907.41;;;12.28;100.00
19112;BME280;9688;51.906;8.376;2023-10-31T06:20:14;98913.31;;;12.32;100.00
19112;BME280;9688;51.906;8.376;2023-10-31T06:23:01;98913.91;;;12.36;100.00
19112;BME280;9688;51.906;8.376;2023-10-31T06:25:47;98913.09;;;12.35;100.00
19112;BME280;9688;51.906;8.376;2023-10-31T06:28:33;98924.31;;;12.39;100.00
19112;BME280;9688;51.906;8.376;2023-10-31T06:31:22;98913.59;;;12.40;100.00
19112;BME280;9688;51.906;8.376;2023-10-31T06:34:08;98911.69;;;12.42;100.00
19112;BME280;9688;51.906;8.376;2023-10-31T06:36:54;98924.19;;;12.40;100.00
19112;BME280;9688;51.906;8.376;2023-10-31T06:39:40;98924.09;;;12.42;100.00
19112;BME280;9688;51.906;8.376;2023-10-31T06:42:26;98915.41;;;12.40;100.00
19112;BME280;9688;51.906;8.376;2023-10-31T06:45:12;98915.63;;;12.37;100.00
19112;BME280;9688;51.906;8.376;2023-10-31T06:47:59;98926.47;;;12.34;100.00
19112;BME280;9688;51.906;8.376;2023-10-31T06:50:45;98933.53;;;12.33;100.00
19112;BME280;9688;51.906;8.376;2023-10-31T06:53:31;98928.47;;;12.30;100.00
19112;BME280;9688;51.906;8.376;2023-10-31T06:56:17;98924.97;;;12.30;100.00
19112;BME280;9688;51.906;8.376;2023-10-31T06:59:03;98929.34;;;12.31;100.00
19112;BME280;9688;51.906;8.376;2023-10-31T07:01:49;98934.63;;;12.31;100.00
19112;BME280;9688;51.906;8.376;2023-10-31T07:04:36;98931.84;;;12.32;100.00
19112;BME280;9688;51.906;8.376;2023-10-31T07:07:22;98941.38;;;12.35;100.00
19112;BME280;9688;51.906;8.376;2023-10-31T07:10:08;98950.41;;;12.32;100.00
19112;BME280;9688;51.906;8.376;2023-10-31T07:12:54;98952.66;;;12.25;100.00
19112;BME280;9688;51.906;8.376;2023-10-31T07:15:40;98968.72;;;12.11;100.00
19112;BME280;9688;51.906;8.376;2023-10-31T07:18:27;98971.06;;;12.03;100.00
19112;BME280;9688;51.906;8.376;2023-10-31T07:21:15;98986.88;;;11.92;100.00
19112;BME280;9688;51.906;8.376;2023-10-31T07:24:01;98996.16;;;11.84;100.00
19112;BME280;9688;51.906;8.376;2023-10-31T07:26:47;98996.88;;;11.74;100.00
19112;BME280;9688;51.906;8.376;2023-10-31T07:29:33;98999.13;;;11.67;100.00
19112;BME280;9688;51.906;8.376;2023-10-31T07:32:19;99007.16;;;11.66;100.00
19112;BME280;9688;51.906;8.376;2023-10-31T07:35:06;99006.53;;;11.62;100.00
19112;BME280;9688;51.906;8.376;2023-10-31T07:37:53;99009.06;;;11.64;100.00
19112;BME280;9688;51.906;8.376;2023-10-31T07:40:39;99009.94;;;11.64;100.00
19112;BME280;9688;51.906;8.376;2023-10-31T07:43:25;99022.50;;;11.60;100.00
19112;BME280;9688;51.906;8.376;2023-10-31T07:46:11;99021.13;;;11.55;100.00
19112;BME280;9688;51.906;8.376;2023-10-31T07:48:57;99030.31;;;11.49;100.00
19112;BME280;9688;51.906;8.376;2023-10-31T07:51:43;99028.66;;;11.48;100.00
19112;BME280;9688;51.906;8.376;2023-10-31T07:54:31;99024.09;;;11.50;100.00
19112;BME280;9688;51.906;8.376;2023-10-31T07:57:17;99033.72;;;11.51;100.00
19112;BME280;9688;51.906;8.376;2023-10-31T08:00:04;99033.63;;;11.53;100.00
19112;BME280;9688;51.906;8.376;2023-10-31T08:02:56;99045.59;;;11.58;100.00
19112;BME280;9688;51.906;8.376;2023-10-31T08:05:43;99048.13;;;11.60;100.00
19112;BME280;9688;51.906;8.376;2023-10-31T08:08:29;99045.47;;;11.60;100.00
19112;BME280;9688;51.906;8.376;2023-10-31T08:11:16;99051.94;;;11.69;100.00
19112;BME280;9688;51.906;8.376;2023-10-31T08:14:02;99046.03;;;11.78;100.00
19112;BME280;9688;51.906;8.376;2023-10-31T08:16:48;99050.59;;;11.89;100.00
19112;BME280;9688;51.906;8.376;2023-10-31T08:19:34;99055.81;;;12.03;100.00
19112;BME280;9688;51.906;8.376;2023-10-31T08:22:20;99067.44;;;12.13;100.00
19112;BME280;9688;51.906;8.376;2023-10-31T08:25:06;99065.22;;;12.20;100.00
19112;BME280;9688;51.906;8.376;2023-10-31T08:27:54;99065.84;;;12.23;100.00
19112;BME280;9688;51.906;8.376;2023-10-31T08:30:41;99068.91;;;12.30;100.00
19112;BME280;9688;51.906;8.376;2023-10-31T08:33:27;99084.03;;;12.41;100.00
19112;BME280;9688;51.906;8.376;2023-10-31T08:36:13;99076.75;;;12.44;100.00
19112;BME280;9688;51.906;8.376;2023-10-31T08:38:59;99087.75;;;12.51;100.00
19112;BME280;9688;51.906;8.376;2023-10-31T08:41:51;99096.97;;;12.58;100.00
19112;BME280;9688;51.906;8.376;2023-10-31T08:44:39;99092.91;;;12.65;100.00
19112;BME280;9688;51.906;8.376;2023-10-31T08:47:26;99093.09;;;12.75;100.00
19112;BME280;9688;51.906;8.376;2023-10-31T08:50:12;99105.06;;;12.81;100.00
19112;BME280;9688;51.906;8.376;2023-10-31T08:52:58;99107.28;;;12.87;100.00
19112;BME280;9688;51.906;8.376;2023-10-31T08:55:44;99114.16;;;12.89;100.00
19112;BME280;9688;51.906;8.376;2023-10-31T08:58:29;99113.31;;;12.89;100.00
19112;BME280;9688;51.906;8.376;2023-10-31T09:01:16;99128.38;;;12.88;100.00
19112;BME280;9688;51.906;8.376;2023-10-31T09:04:03;99120.41;;;12.88;100.00
19112;BME280;9688;51.906;8.376;2023-10-31T09:06:49;99118.63;;;12.89;100.00
19112;BME280;9688;51.906;8.376;2023-10-31T09:09:35;99136.00;;;12.93;100.00
19112;BME280;9688;51.906;8.376;2023-10-31T09:12:21;99130.75;;;13.04;100.00
19112;BME280;9688;51.906;8.376;2023-10-31T09:15:07;99132.41;;;13.18;100.00
19112;BME280;9688;51.906;8.376;2023-10-31T09:17:55;99124.66;;;13.28;100.00
19112;BME280;9688;51.906;8.376;2023-10-31T09:20:41;99130.47;;;13.33;100.00
19112;BME280;9688;51.906;8.376;2023-10-31T09:23:27;99137.16;;;13.38;100.00
19112;BME280;9688;51.906;8.376;2023-10-31T09:26:14;99148.88;;;13.47;100.00
19112;BME280;9688;51.906;8.376;2023-10-31T09:29:00;99164.22;;;13.55;100.00
19112;BME280;9688;51.906;8.376;2023-10-31T09:31:45;99147.97;;;13.59;100.00
19112;BME280;9688;51.906;8.376;2023-10-31T09:34:33;99149.66;;;13.60;100.00
19112;BME280;9688;51.906;8.376;2023-10-31T09:37:19;99153.88;;;13.63;100.00
19112;BME280;9688;51.906;8.376;2023-10-31T09:40:06;99156.53;;;13.63;100.00
19112;BME280;9688;51.906;8.376;2023-10-31T09:42:53;99165.00;;;13.68;100.00
19112;BME280;9688;51.906;8.376;2023-10-31T09:45:39;99164.28;;;13.66;100.00
19112;BME280;9688;51.906;8.376;2023-10-31T09:48:26;99184.81;;;13.64;100.00
19112;BME280;9688;51.906;8.376;2023-10-31T09:51:14;99188.03;;;13.56;100.00
19112;BME280;9688;51.906;8.376;2023-10-31T09:54:05;99196.31;;;13.52;100.00
19112;BME280;9688;51.906;8.376;2023-10-31T09:56:52;99195.59;;;13.50;100.00
19112;BME280;9688;51.906;8.376;2023-10-31T09:59:38;99198.97;;;13.52;100.00
19112;BME280;9688;51.906;8.376;2023-10-31T10:02:23;99207.16;;;13.49;100.00
19112;BME280;9688;51.906;8.376;2023-10-31T10:05:10;99215.69;;;13.41;100.00
19112;BME280;9688;51.906;8.376;2023-10-31T10:07:57;99227.81;;;13.32;100.00
19112;BME280;9688;51.906;8.376;2023-10-31T10:10:43;99236.97;;;13.28;100.00
19112;BME280;9688;51.906;8.376;2023-10-31T10:13:29;99238.88;;;13.26;100.00
19112;BME280;9688;51.906;8.376;2023-10-31T10:16:28;99234.31;;;13.15;100.00
19112;BME280;9688;51.906;8.376;2023-10-31T10:19:17;99242.63;;;13.11;100.00
19112;BME280;9688;51.906;8.376;2023-10-31T10:22:04;99247.63;;;13.03;100.00
19112;BME280;9688;51.906;8.376;2023-10-31T10:24:51;99265.75;;;12.96;100.00
19112;BME280;9688;51.906;8.376;2023-10-31T10:27:37;99267.16;;;12.89;100.00
19112;BME280;9688;51.906;8.376;2023-10-31T10:30:22;99270.13;;;12.84;100.00
19112;BME280;9688;51.906;8.376;2023-10-31T10:33:08;99276.47;;;12.82;100.00
19112;BME280;9688;51.906;8.376;2023-10-31T10:35:55;99275.09;;;12.76;100.00
19112;BME280;9688;51.906;8.376;2023-10-31T10:38:42;99270.09;;;12.71;100.00
19112;BME280;9688;51.906;8.376;2023-10-31T10:41:35;99272.13;;;12.68;100.00
19112;BME280;9688;51.906;8.376;2023-10-31T10:44:29;99280.00;;;12.69;100.00
19112;BME280;9688;51.906;8.376;2023-10-31T10:47:17;99278.72;;;12.75;100.00
19112;BME280;9688;51.906;8.376;2023-10-31T10:50:05;99281.78;;;12.82;100.00
19112;BME280;9688;51.906;8.376;2023-10-31T10:52:57;99284.22;;;12.85;100.00
19112;BME280;9688;51.906;8.376;2023-10-31T10:55:47;99284.53;;;12.80;100.00
19112;BME280;9688;51.906;8.376;2023-10-31T10:58:44;99291.84;;;12.77;100.00
19112;BME280;9688;51.906;8.376;2023-10-31T11:01:32;99300.88;;;12.74;100.00
19112;BME280;9688;51.906;8.376;2023-10-31T11:04:20;99293.75;;;12.75;100.00
19112;BME280;9688;51.906;8.376;2023-10-31T11:07:06;99295.78;;;12.71;100.00
19112;BME280;9688;51.906;8.376;2023-10-31T11:09:52;99292.50;;;12.67;100.00
19112;BME280;9688;51.906;8.376;2023-10-31T11:12:39;99301.22;;;12.69;100.00
19112;BME280;9688;51.906;8.376;2023-10-31T11:15:27;99307.88;;;12.62;100.00
19112;BME280;9688;51.906;8.376;2023-10-31T11:18:14;99310.72;;;12.59;100.00
19112;BME280;9688;51.906;8.376;2023-10-31T11:21:00;99323.03;;;12.60;100.00
19112;BME280;9688;51.906;8.376;2023-10-31T11:23:46;99314.84;;;12.63;100.00
19112;BME280;9688;51.906;8.376;2023-10-31T11:26:32;99316.38;;;12.67;100.00
19112;BME280;9688;51.906;8.376;2023-10-31T11:29:18;99319.84;;;12.68;100.00
19112;BME280;9688;51.906;8.376;2023-10-31T11:32:09;99321.53;;;12.69;100.00
19112;BME280;9688;51.906;8.376;2023-10-31T11:35:07;99328.56;;;12.70;100.00
19112;BME280;9688;51.906;8.376;2023-10-31T11:38:01;99328.44;;;12.71;100.00
19112;BME280;9688;51.906;8.376;2023-10-31T11:41:00;99334.50;;;12.73;100.00
19112;BME280;9688;51.906;8.376;2023-10-31T11:43:52;99327.38;;;12.74;100.00
19112;BME280;9688;51.906;8.376;2023-10-31T11:46:38;99322.28;;;12.71;100.00
19112;BME280;9688;51.906;8.376;2023-10-31T11:49:46;99332.16;;;12.69;100.00
19112;BME280;9688;51.906;8.376;2023-10-31T11:52:32;99332.16;;;12.69;100.00
19112;BME280;9688;51.906;8.376;2023-10-31T11:55:18;99343.72;;;12.68;100.00
19112;BME280;9688;51.906;8.376;2023-10-31T11:58:15;99335.84;;;12.66;100.00
19112;BME280;9688;51.906;8.376;2023-10-31T12:01:02;99331.22;;;12.70;100.00
19112;BME280;9688;51.906;8.376;2023-10-31T12:03:49;99345.03;;;12.75;100.00
19112;BME280;9688;51.906;8.376;2023-10-31T12:06:38;99345.13;;;12.86;100.00
19112;BME280;9688;51.906;8.376;2023-10-31T12:09:24;99346.31;;;12.95;100.00
19112;BME280;9688;51.906;8.376;2023-10-31T12:12:16;99343.31;;;13.00;100.00
19112;BME280;9688;51.906;8.376;2023-10-31T12:15:06;99341.19;;;13.05;100.00
19112;BME280;9688;51.906;8.376;2023-10-31T12:17:52;99340.13;;;13.07;100.00
19112;BME280;9688;51.906;8.376;2023-10-31T12:20:47;99348.84;;;13.09;100.00
19112;BME280;9688;51.906;8.376;2023-10-31T12:23:35;99329.97;;;13.14;100.00
19112;BME280;9688;51.906;8.376;2023-10-31T12:26:21;99347.56;;;13.15;100.00
19112;BME280;9688;51.906;8.376;2023-10-31T12:29:12;99335.47;;;13.11;100.00
19112;BME280;9688;51.906;8.376;2023-10-31T12:32:02;99341.09;;;13.06;100.00
19112;BME280;9688;51.906;8.376;2023-10-31T12:34:52;99360.81;;;13.02;100.00
19112;BME280;9688;51.906;8.376;2023-10-31T12:37:45;99357.22;;;13.03;100.00
19112;BME280;9688;51.906;8.376;2023-10-31T12:40:33;99363.06;;;13.08;100.00
19112;BME280;9688;51.906;8.376;2023-10-31T12:43:20;99360.00;;;13.14;100.00
19112;BME280;9688;51.906;8.376;2023-10-31T12:46:25;99363.28;;;13.18;100.00
19112;BME280;9688;51.906;8.376;2023-10-31T12:49:11;99363.06;;;13.21;100.00
19112;BME280;9688;51.906;8.376;2023-10-31T12:52:00;99365.63;;;13.23;100.00
19112;BME280;9688;51.906;8.376;2023-10-31T12:54:48;99367.22;;;13.25;100.00
19112;BME280;9688;51.906;8.376;2023-10-31T12:57:36;99366.38;;;13.25;100.00
19112;BME280;9688;51.906;8.376;2023-10-31T13:00:31;99367.13;;;13.27;100.00
19112;BME280;9688;51.906;8.376;2023-10-31T13:03:18;99372.53;;;13.25;100.00
19112;BME280;9688;51.906;8.376;2023-10-31T13:06:14;99379.72;;;13.23;100.00
19112;BME280;9688;51.906;8.376;2023-10-31T13:09:00;99383.44;;;13.21;100.00
19112;BME280;9688;51.906;8.376;2023-10-31T13:11:47;99378.13;;;13.21;100.00
19112;BME280;9688;51.906;8.376;2023-10-31T13:14:35;99379.31;;;13.16;100.00
19112;BME280;9688;51.906;8.376;2023-10-31T13:17:24;99377.59;;;13.15;100.00
19112;BME280;9688;51.906;8.376;2023-10-31T13:20:11;99380.25;;;13.15;100.00
19112;BME280;9688;51.906;8.376;2023-10-31T13:22:57;99389.28;;;13.13;100.00
19112;BME280;9688;51.906;8.376;2023-10-31T13:25:46;99385.16;;;13.09;100.00
19112;BME280;9688;51.906;8.376;2023-10-31T13:28:33;99385.03;;;13.10;100.00
19112;BME280;9688;51.906;8.376;2023-10-31T13:31:20;99387.38;;;13.15;100.00
19112;BME280;9688;51.906;8.376;2023-10-31T13:34:06;99396.84;;;13.19;100.00
19112;BME280;9688;51.906;8.376;2023-10-31T13:36:52;99391.41;;;13.21;100.00
19112;BME280;9688;51.906;8.376;2023-10-31T13:39:38;99395.03;;;13.20;100.00
19112;BME280;9688;51.906;8.376;2023-10-31T13:42:24;99402.03;;;13.21;100.00
19112;BME280;9688;51.906;8.376;2023-10-31T13:45:10;99403.72;;;13.22;100.00
19112;BME280;9688;51.906;8.376;2023-10-31T13:47:57;99412.41;;;13.24;100.00
19112;BME280;9688;51.906;8.376;2023-10-31T13:50:44;99408.75;;;13.26;100.00
19112;BME280;9688;51.906;8.376;2023-10-31T13:53:30;99420.94;;;13.29;100.00
19112;BME280;9688;51.906;8.376;2023-10-31T13:56:16;99404.28;;;13.27;100.00
19112;BME280;9688;51.906;8.376;2023-10-31T13:59:02;99406.94;;;13.27;100.00
19112;BME280;9688;51.906;8.376;2023-10-31T14:01:48;99414.03;;;13.26;100.00
19112;BME280;9688;51.906;8.376;2023-10-31T14:04:36;99419.44;;;13.25;100.00
19112;BME280;9688;51.906;8.376;2023-10-31T14:07:22;99416.88;;;13.23;100.00
19112;BME280;9688;51.906;8.376;2023-10-31T14:10:08;99421.78;;;13.16;100.00
19112;BME280;9688;51.906;8.376;2023-10-31T14:12:54;99429.28;;;13.10;100.00
19112;BME280;9688;51.906;8.376;2023-10-31T14:15:41;99422.38;;;13.07;100.00
19112;BME280;9688;51.906;8.376;2023-10-31T14:18:27;99429.28;;;13.10;100.00
19112;BME280;9688;51.906;8.376;2023-10-31T14:21:15;99439.06;;;13.09;100.00
19112;BME280;9688;51.906;8.376;2023-10-31T14:24:01;99431.09;;;13.09;100.00
19112;BME280;9688;51.906;8.376;2023-10-31T14:26:47;99432.56;;;13.13;100.00
19112;BME280;9688;51.906;8.376;2023-10-31T14:29:35;99433.22;;;13.17;100.00
19112;BME280;9688;51.906;8.376;2023-10-31T14:32:21;99441.72;;;13.22;100.00
19112;BME280;9688;51.906;8.376;2023-10-31T14:35:07;99439.16;;;13.21;100.00
19112;BME280;9688;51.906;8.376;2023-10-31T14:37:55;99449.16;;;13.17;100.00
19112;BME280;9688;51.906;8.376;2023-10-31T14:40:41;99448.41;;;13.15;100.00
19112;BME280;9688;51.906;8.376;2023-10-31T14:43:29;99452.75;;;13.16;100.00